Time;durP1;ratioP1;P1;durP2;ratioP2;P2;SDS_P1;SDS_P2;PMS_P1;PMS_P2;Temp;Humidity;BMP_temperature;BMP_pressure;BME280_temperature;BME280_humidity;BME280_pressure;Samples;Min_cycle;Max_cycle;Signal;HPM_P1;HPM_P2
2023/01/01 00:01:41;;;;;;;87.38;48.10;;;;;;;17.22;54.19;100710.50;4990741;28;20030;-40
2023/01/01 00:04:11;;;;;;;99.10;53.80;;;;;;;17.35;54.11;100709.41;4985604;28;20037;-44
2023/01/01 00:06:36;;;;;;;79.15;41.70;;;;;;;17.22;54.54;100712.28;4988061;28;20030;-40
2023/01/01 00:11:46;;;;;;;43.78;23.25;;;;;;;16.87;55.12;100712.81;4983586;28;20064;-41
2023/01/01 00:14:11;;;;;;;53.15;28.52;;;;;;;16.88;54.87;100715.44;4982978;28;20509;-41
2023/01/01 00:16:36;;;;;;;65.90;31.83;;;;;;;17.03;55.28;100714.31;4986231;28;20137;-40
2023/01/01 00:19:02;;;;;;;44.83;22.25;;;;;;;17.09;54.87;100705.44;4985626;28;20146;-41
2023/01/01 00:21:27;;;;;;;44.63;20.90;;;;;;;17.02;55.03;100702.91;4981230;28;20034;-40
2023/01/01 00:23:53;;;;;;;42.47;21.05;;;;;;;17.06;55.27;100702.88;4986594;28;20066;-41
2023/01/01 00:26:18;;;;;;;40.13;19.52;;;;;;;16.97;55.52;100698.63;4982532;28;20077;-41
2023/01/01 00:28:44;;;;;;;53.85;23.17;;;;;;;17.14;55.01;100690.47;4985906;28;20451;-43
2023/01/01 00:31:18;;;;;;;45.28;20.25;;;;;;;16.94;55.83;100698.69;4983165;28;20042;-47
2023/01/01 00:33:54;;;;;;;31.83;14.48;;;;;;;16.95;55.60;100703.94;4983751;28;20503;-43
2023/01/01 00:36:20;;;;;;;41.97;17.60;;;;;;;17.30;55.06;100690.19;4981932;28;20042;-42
2023/01/01 00:38:46;;;;;;;35.47;13.82;;;;;;;17.05;55.34;100691.47;4986029;28;20467;-41
2023/01/01 00:41:12;;;;;;;36.53;17.67;;;;;;;17.44;54.45;100700.50;4981182;28;20117;-41
2023/01/01 00:43:38;;;;;;;37.10;16.98;;;;;;;17.02;55.32;100717.84;4986159;28;20104;-40
2023/01/01 00:46:04;;;;;;;31.60;13.02;;;;;;;16.90;55.40;100699.59;4985974;28;20499;-40
2023/01/01 00:48:30;;;;;;;36.03;14.63;;;;;;;17.38;54.17;100708.50;4981703;28;20030;-41
2023/01/01 00:50:55;;;;;;;33.40;13.18;;;;;;;17.30;54.47;100703.34;4985049;28;20041;-40
2023/01/01 00:53:21;;;;;;;28.75;9.13;;;;;;;17.33;54.26;100692.75;4981319;28;20030;-47
2023/01/01 00:55:48;;;;;;;25.33;9.82;;;;;;;17.27;54.21;100694.63;4985234;28;20044;-41
2023/01/01 00:58:14;;;;;;;21.75;9.15;;;;;;;17.24;54.14;100699.94;4981535;28;20042;-40
2023/01/01 01:00:40;;;;;;;26.38;9.45;;;;;;;17.21;53.87;100708.75;4985115;28;20030;-41
2023/01/01 01:03:05;;;;;;;25.25;9.35;;;;;;;17.48;53.48;100722.38;4981969;28;20089;-56
2023/01/01 01:05:32;;;;;;;26.15;8.25;;;;;;;17.31;53.76;100722.66;4985290;28;20022;-40
2023/01/01 01:07:58;;;;;;;25.00;8.57;;;;;;;17.16;53.67;100736.94;4983742;28;20045;-41
2023/01/01 01:10:24;;;;;;;26.52;7.57;;;;;;;16.77;54.79;100719.13;4981961;28;20502;-42
2023/01/01 01:12:51;;;;;;;24.60;9.02;;;;;;;17.48;53.38;100735.56;4982786;28;20085;-42
2023/01/01 01:15:17;;;;;;;107.38;55.38;;;;;;;17.53;52.95;100728.44;4981470;28;20050;-43
2023/01/01 01:17:43;;;;;;;25.95;7.65;;;;;;;17.06;54.07;100724.81;4985752;28;20431;-42
2023/01/01 01:20:09;;;;;;;21.85;8.60;;;;;;;17.26;53.66;100724.53;4982557;28;20042;-41
2023/01/01 01:22:34;;;;;;;20.80;7.55;;;;;;;17.26;53.67;100722.72;4989391;28;20035;-40
2023/01/01 01:25:00;;;;;;;26.20;8.00;;;;;;;17.11;54.46;100730.88;4987826;28;20034;-41
2023/01/01 01:27:25;;;;;;;17.80;6.57;;;;;;;16.93;54.68;100724.13;4985674;28;20046;-41
2023/01/01 01:29:51;;;;;;;21.67;6.53;;;;;;;17.21;53.90;100731.59;4988460;28;20034;-40
2023/01/01 01:32:16;;;;;;;21.85;9.40;;;;;;;17.22;53.77;100721.03;4980637;28;20065;-40
2023/01/01 01:34:42;;;;;;;16.40;5.47;;;;;;;17.00;54.58;100722.28;4986996;28;20049;-42
2023/01/01 01:37:07;;;;;;;21.52;8.05;;;;;;;17.27;54.14;100727.09;4983657;28;20412;-42
2023/01/01 01:39:32;;;;;;;21.52;6.45;;;;;;;17.26;54.27;100720.09;4987884;28;20065;-41
2023/01/01 01:41:58;;;;;;;17.45;6.82;;;;;;;17.25;54.39;100739.44;4987823;28;20088;-40
2023/01/01 01:44:47;;;;;;;15.40;6.28;;;;;;;16.97;54.76;100732.84;4983449;28;20106;-41
2023/01/01 01:47:38;;;;;;;18.90;6.00;;;;;;;17.35;54.32;100742.78;4984400;28;20451;-40
2023/01/01 01:50:15;;;;;;;20.75;5.57;;;;;;;17.22;54.69;100739.50;4988173;28;20050;-40
2023/01/01 01:53:11;;;;;;;21.40;5.55;;;;;;;17.08;55.10;100754.63;4982747;28;20376;-41
2023/01/01 01:55:39;;;;;;;17.35;4.25;;;;;;;17.26;54.69;100751.69;4980736;28;20573;-41
2023/01/01 01:58:08;;;;;;;23.95;5.00;;;;;;;17.13;54.92;100759.84;4986908;28;20507;-40
2023/01/01 02:00:33;;;;;;;15.80;4.97;;;;;;;17.43;54.48;100756.72;4982433;28;20118;-41
2023/01/01 02:03:04;;;;;;;15.85;4.72;;;;;;;17.29;54.30;100756.94;4985190;28;20042;-42
2023/01/01 02:05:31;;;;;;;18.02;6.85;;;;;;;17.10;54.94;100759.88;4982623;28;20038;-41
2023/01/01 02:07:58;;;;;;;21.60;8.20;;;;;;;17.41;54.14;100761.13;4986959;28;20038;-40
2023/01/01 02:10:25;;;;;;;18.85;5.10;;;;;;;17.15;54.18;100758.91;4983658;28;20034;-42
2023/01/01 02:12:50;;;;;;;15.95;4.30;;;;;;;17.32;53.86;100769.22;4985032;28;20034;-40
2023/01/01 02:15:15;;;;;;;14.13;4.20;;;;;;;17.41;53.56;100776.94;4982295;28;20526;-42
2023/01/01 02:17:44;;;;;;;13.02;4.20;;;;;;;17.01;54.08;100766.16;4987555;28;20038;-42
2023/01/01 02:20:27;;;;;;;14.95;4.35;;;;;;;17.20;53.89;100772.88;4983376;28;20491;-38
2023/01/01 02:23:14;;;;;;;14.30;4.22;;;;;;;17.26;53.37;100777.22;4987992;28;20030;-39
2023/01/01 02:26:09;;;;;;;17.23;4.55;;;;;;;16.96;53.57;100784.66;4985012;28;20034;-42
2023/01/01 02:28:40;;;;;;;14.00;3.70;;;;;;;17.12;53.45;100777.41;4984417;28;20065;-41
2023/01/01 02:31:09;;;;;;;12.10;4.00;;;;;;;17.22;53.39;100773.75;4983551;28;20072;-49
2023/01/01 02:33:34;;;;;;;12.23;3.38;;;;;;;17.12;53.45;100784.44;4987455;28;20044;-41
2023/01/01 02:36:05;;;;;;;13.32;3.40;;;;;;;17.08;53.71;100782.75;4987490;28;20495;-41
2023/01/01 02:38:35;;;;;;;14.82;3.70;;;;;;;17.00;53.74;100781.09;4985920;28;20176;-39
2023/01/01 02:41:05;;;;;;;10.70;3.55;;;;;;;17.07;53.50;100771.34;4986913;28;20521;-43
2023/01/01 02:43:30;;;;;;;16.52;4.38;;;;;;;17.17;53.51;100782.59;4981303;28;20038;-39
2023/01/01 02:45:56;;;;;;;10.68;3.50;;;;;;;17.08;53.65;100783.59;4984665;28;20031;-39
2023/01/01 02:48:40;;;;;;;10.68;3.25;;;;;;;16.97;53.68;100781.13;4980661;28;20034;-40
2023/01/01 02:51:17;;;;;;;16.00;3.47;;;;;;;17.26;53.20;100793.03;4981276;28;20062;-55
2023/01/01 02:53:47;;;;;;;10.95;3.30;;;;;;;17.16;53.76;100778.22;4985815;28;20698;-40
2023/01/01 02:56:31;;;;;;;10.50;2.85;;;;;;;17.05;53.92;100794.19;4984465;28;20078;-40
2023/01/01 03:02:40;;;;;;;12.07;2.95;;;;;;;17.06;53.97;100797.69;4983567;28;20045;-41
2023/01/01 03:05:14;;;;;;;12.70;2.75;;;;;;;17.11;53.86;100796.75;4979081;28;20054;-55
2023/01/01 03:08:22;;;;;;;13.05;2.90;;;;;;;17.10;53.84;100812.56;4985076;28;20518;-41
2023/01/01 03:11:01;;;;;;;12.10;3.10;;;;;;;17.16;55.43;100821.25;4981899;28;20085;-40
2023/01/01 03:13:47;;;;;;;9.95;2.65;;;;;;;16.58;57.36;100836.91;4981465;28;20042;-39
2023/01/01 03:16:22;;;;;;;13.13;3.33;;;;;;;16.74;57.19;100841.13;4978850;28;20407;-42
2023/01/01 03:19:16;;;;;;;8.07;2.80;;;;;;;16.58;57.64;100842.19;4983141;28;20030;-40
2023/01/01 03:21:50;;;;;;;10.20;2.93;;;;;;;16.40;57.57;100852.91;4978997;28;20488;-42
2023/01/01 03:24:22;;;;;;;15.90;3.28;;;;;;;16.59;57.62;100849.16;4979111;28;20499;-40
2023/01/01 03:26:52;;;;;;;13.10;3.05;;;;;;;16.63;57.02;100858.81;4982719;28;20458;-39
2023/01/01 03:29:20;;;;;;;12.43;2.97;;;;;;;16.45;57.51;100854.59;4979793;28;20046;-39
2023/01/01 03:31:50;;;;;;;14.18;3.03;;;;;;;16.65;57.42;100864.06;4981339;28;20089;-39
2023/01/01 03:34:20;;;;;;;14.55;3.00;;;;;;;16.87;56.99;100869.06;4979406;28;20042;-41
2023/01/01 03:36:51;;;;;;;10.35;2.97;;;;;;;16.58;57.50;100858.84;4986504;28;20050;-39
2023/01/01 03:39:23;;;;;;;13.00;3.15;;;;;;;16.72;57.32;100882.38;4983169;28;20045;-41
2023/01/01 03:41:57;;;;;;;11.13;2.50;;;;;;;16.60;57.84;100883.41;4986396;28;20077;-39
2023/01/01 03:44:37;;;;;;;11.23;2.80;;;;;;;16.54;57.89;100872.03;4981489;28;20093;-39
2023/01/01 03:47:04;;;;;;;9.80;2.35;;;;;;;16.29;58.20;100897.72;4986120;28;20042;-40
2023/01/01 03:49:29;;;;;;;10.30;2.20;;;;;;;15.99;58.30;100905.88;4981837;28;20491;-40
2023/01/01 03:52:15;;;;;;;9.80;2.17;;;;;;;15.99;58.72;100905.88;4985807;28;20053;-40
2023/01/01 03:54:52;;;;;;;10.70;2.10;;;;;;;16.13;58.42;100893.50;4982871;28;20399;-39
2023/01/01 03:57:31;;;;;;;6.50;1.80;;;;;;;16.15;58.31;100899.63;4981844;28;20050;-45
2023/01/01 04:00:08;;;;;;;10.90;1.70;;;;;;;16.26;57.18;100905.66;4986249;28;20104;-39
2023/01/01 04:02:39;;;;;;;6.30;1.48;;;;;;;15.58;59.04;100924.59;4982242;28;20062;-46
2023/01/01 04:05:06;;;;;;;7.75;1.67;;;;;;;15.83;59.02;100920.94;4986206;28;20493;-39
2023/01/01 04:07:32;;;;;;;5.13;1.60;;;;;;;16.28;57.56;100921.44;4982387;28;20503;-39
2023/01/01 04:10:00;;;;;;;8.20;1.73;;;;;;;16.11;58.35;100924.19;4986677;28;20117;-42
2023/01/01 04:12:26;;;;;;;9.68;1.60;;;;;;;15.95;58.44;100923.47;4982291;28;20905;-46
2023/01/01 04:14:51;;;;;;;8.13;1.55;;;;;;;15.44;60.35;100935.16;4986169;28;20034;-40
2023/01/01 04:17:17;;;;;;;8.13;1.80;;;;;;;15.43;59.95;100930.78;4982408;28;20034;-39
2023/01/01 04:19:42;;;;;;;7.03;1.60;;;;;;;15.56;59.70;100950.88;4985774;28;20053;-43
2023/01/01 04:22:08;;;;;;;9.48;1.77;;;;;;;15.71;58.93;100945.53;4981938;28;20145;-40
2023/01/01 04:24:33;;;;;;;10.70;2.03;;;;;;;15.60;58.85;100955.25;4986033;28;20038;-40
2023/01/01 04:26:59;;;;;;;8.27;1.80;;;;;;;15.65;58.19;100955.22;4985801;28;20046;-39
2023/01/01 04:29:24;;;;;;;9.15;1.80;;;;;;;15.60;58.39;100962.25;4982309;28;20185;-39
2023/01/01 04:31:49;;;;;;;9.77;1.77;;;;;;;15.32;60.22;100972.88;4985806;28;20447;-42
2023/01/01 04:34:15;;;;;;;13.43;2.05;;;;;;;15.37;60.62;100981.59;4982104;28;20034;-42
2023/01/01 04:36:40;;;;;;;13.77;2.15;;;;;;;15.28;61.30;100975.53;4985321;28;20121;-39
2023/01/01 04:39:06;;;;;;;11.15;2.20;;;;;;;15.56;60.77;100978.91;4981941;28;20034;-45
2023/01/01 04:41:32;;;;;;;13.77;2.55;;;;;;;15.42;61.05;100992.09;4984859;28;20113;-41
2023/01/01 04:43:57;;;;;;;12.43;2.10;;;;;;;15.47;60.90;100985.06;4985360;28;20022;-39
2023/01/01 04:46:23;;;;;;;12.13;2.60;;;;;;;15.64;60.61;100993.75;4981956;28;20042;-40
2023/01/01 04:48:49;;;;;;;11.82;2.30;;;;;;;15.83;59.79;100990.16;4987544;28;20037;-43
2023/01/01 04:51:16;;;;;;;12.98;2.28;;;;;;;15.53;60.47;101003.47;4988262;28;20057;-43
2023/01/01 04:53:42;;;;;;;14.88;2.42;;;;;;;15.60;60.25;100988.53;4993004;28;20034;-40
2023/01/01 04:56:09;;;;;;;10.23;2.25;;;;;;;15.67;60.35;100996.41;4986538;28;20036;-40
2023/01/01 04:58:36;;;;;;;14.02;2.60;;;;;;;15.20;61.38;101008.81;4991218;28;20031;-41
2023/01/01 05:01:02;;;;;;;12.63;2.40;;;;;;;15.54;60.69;101013.09;4990651;28;20042;-40
2023/01/01 05:03:28;;;;;;;17.20;2.50;;;;;;;15.16;60.76;101005.34;4985119;28;20462;-44
2023/01/01 05:06:05;;;;;;;13.85;2.58;;;;;;;15.46;60.42;101000.84;4989232;28;20518;-40
2023/01/01 05:08:32;;;;;;;14.43;2.30;;;;;;;15.25;60.65;101001.78;4985277;28;20482;-40
2023/01/01 05:11:12;;;;;;;10.55;2.40;;;;;;;15.61;59.74;101017.44;4987633;28;20080;-43
2023/01/01 05:13:39;;;;;;;16.52;2.80;;;;;;;15.26;60.36;101022.78;4982271;28;20130;-40
2023/01/01 05:16:06;;;;;;;10.95;2.22;;;;;;;15.38;60.35;101033.25;4985286;28;20436;-41
2023/01/01 05:18:32;;;;;;;14.85;2.20;;;;;;;15.33;60.25;101027.16;4985856;28;20038;-41
2023/01/01 05:21:10;;;;;;;17.30;2.78;;;;;;;15.42;59.85;101031.50;4987224;28;20042;-40
2023/01/01 05:23:36;;;;;;;16.52;2.58;;;;;;;15.19;60.29;101022.81;4984377;28;20038;-40
2023/01/01 05:26:16;;;;;;;13.90;2.40;;;;;;;15.01;60.54;101039.50;4988400;28;20045;-41
2023/01/01 05:28:42;;;;;;;15.15;2.90;;;;;;;15.51;59.31;101022.69;4983422;28;20041;-39
2023/01/01 05:31:11;;;;;;;15.38;2.15;;;;;;;15.10;60.28;101039.50;4982170;28;20107;-39
2023/01/01 05:33:37;;;;;;;10.82;2.30;;;;;;;15.28;60.02;101041.19;4985063;28;20514;-39
2023/01/01 05:36:04;;;;;;;16.67;2.15;;;;;;;15.03;60.39;101048.25;4987879;28;20065;-40
2023/01/01 05:38:30;;;;;;;15.40;2.33;;;;;;;15.35;59.66;101053.44;4985098;28;20035;-41
2023/01/01 05:40:56;;;;;;;12.90;2.25;;;;;;;15.01;60.60;101066.63;4988640;28;20049;-41
2023/01/01 05:43:22;;;;;;;14.07;2.67;;;;;;;15.23;59.93;101069.22;4983640;28;20100;-39
2023/01/01 05:45:47;;;;;;;16.17;2.35;;;;;;;15.18;60.13;101077.13;4986493;28;20387;-42
2023/01/01 05:48:12;;;;;;;14.75;2.50;;;;;;;15.34;59.53;101072.69;4982858;28;20034;-42
2023/01/01 05:50:38;;;;;;;18.17;2.47;;;;;;;15.55;59.03;101079.66;4986619;28;20034;-42
2023/01/01 05:53:03;;;;;;;14.38;2.53;;;;;;;15.18;59.66;101071.88;4985908;28;20154;-40
2023/01/01 05:55:29;;;;;;;14.32;2.92;;;;;;;15.35;59.43;101087.56;4981771;28;20460;-39
2023/01/01 05:57:55;;;;;;;14.55;2.45;;;;;;;15.36;59.43;101089.34;4986704;28;20145;-40
2023/01/01 06:00:20;;;;;;;18.17;2.80;;;;;;;15.40;59.46;101093.69;4982400;28;20038;-47
2023/01/01 06:02:45;;;;;;;19.27;2.83;;;;;;;15.42;59.47;101102.44;4988198;28;20038;-41
2023/01/01 06:05:11;;;;;;;13.05;2.58;;;;;;;15.02;60.57;101086.75;4983568;28;20037;-46
2023/01/01 06:07:36;;;;;;;17.73;2.72;;;;;;;15.20;60.19;101091.09;4988026;28;20060;-42
2023/01/01 06:10:02;;;;;;;13.50;2.40;;;;;;;15.38;59.92;101091.06;4988270;28;20061;-46
2023/01/01 06:12:28;;;;;;;12.95;2.28;;;;;;;15.51;59.89;101098.91;4983461;28;20388;-40
2023/01/01 06:14:53;;;;;;;15.90;2.60;;;;;;;15.21;60.45;101110.34;4985826;28;20030;-41
2023/01/01 06:17:18;;;;;;;14.90;2.20;;;;;;;15.21;60.41;101115.63;4982456;28;20042;-40
2023/01/01 06:19:44;;;;;;;16.08;2.35;;;;;;;15.25;60.42;101114.72;4986081;28;20057;-40
2023/01/01 06:22:09;;;;;;;13.55;2.08;;;;;;;15.08;61.05;101116.50;4982046;28;20030;-41
2023/01/01 06:24:34;;;;;;;18.77;2.58;;;;;;;15.05;60.63;101130.53;4986292;28;20038;-42
2023/01/01 06:27:00;;;;;;;18.60;2.70;;;;;;;14.94;60.90;101108.66;4985168;28;20027;-41
2023/01/01 06:29:25;;;;;;;15.32;2.22;;;;;;;15.03;60.62;101103.38;4980096;28;20085;-42
2023/01/01 06:31:50;;;;;;;17.63;2.60;;;;;;;15.20;60.24;101113.84;4983959;28;20038;-39
2023/01/01 06:34:16;;;;;;;17.50;2.65;;;;;;;14.63;61.81;101141.03;4981485;28;20117;-40
2023/01/01 06:36:41;;;;;;;15.90;2.50;;;;;;;15.03;60.81;101134.91;4984437;28;20459;-41
2023/01/01 06:39:06;;;;;;;12.82;2.45;;;;;;;15.23;60.12;101116.50;4984725;28;20042;-52
2023/01/01 06:41:32;;;;;;;16.80;2.30;;;;;;;15.40;59.49;101131.34;4988846;28;20038;-42
2023/01/01 06:43:58;;;;;;;19.38;2.53;;;;;;;15.13;60.03;101138.38;4988518;28;20023;-42
2023/01/01 06:46:26;;;;;;;14.88;2.22;;;;;;;15.10;60.49;101159.41;4983685;28;20042;-44
2023/01/01 06:48:56;;;;;;;17.35;2.38;;;;;;;15.40;59.63;101155.00;4984046;28;20041;-43
2023/01/01 06:51:24;;;;;;;13.25;2.08;;;;;;;14.64;61.82;101169.03;4980006;28;20061;-42
2023/01/01 06:53:51;;;;;;;18.90;2.35;;;;;;;14.86;61.08;101166.41;4982111;28;20034;-40
2023/01/01 06:56:17;;;;;;;13.30;2.13;;;;;;;14.79;60.97;101183.03;4980419;28;20031;-40
2023/01/01 06:58:43;;;;;;;15.13;2.00;;;;;;;14.81;61.07;101183.03;4983374;28;20491;-41
2023/01/01 07:01:10;;;;;;;13.07;2.30;;;;;;;14.57;61.34;101174.25;4979602;28;20045;-41
2023/01/01 07:03:37;;;;;;;21.35;2.75;;;;;;;15.06;60.22;101197.06;4983468;28;20138;-43
2023/01/01 07:06:03;;;;;;;17.67;2.60;;;;;;;14.77;60.78;101203.13;4983651;28;20042;-40
2023/01/01 07:08:29;;;;;;;15.73;2.45;;;;;;;14.65;60.92;101195.25;4979853;28;20061;-41
2023/01/01 07:10:56;;;;;;;19.70;2.30;;;;;;;15.12;59.63;101197.94;4985327;28;20423;-44
2023/01/01 07:13:25;;;;;;;13.50;2.40;;;;;;;14.92;60.07;101195.28;4983565;28;20069;-40
2023/01/01 07:15:51;;;;;;;12.82;2.03;;;;;;;15.16;59.30;101202.28;4987856;28;20410;-46
2023/01/01 07:18:18;;;;;;;14.15;2.30;;;;;;;14.68;60.05;101205.75;4984556;28;20506;-43
2023/01/01 07:20:47;;;;;;;15.15;2.35;;;;;;;14.81;60.02;101219.78;4987902;28;20044;-42
2023/01/01 07:23:13;;;;;;;17.98;2.72;;;;;;;14.78;59.86;101223.25;4983523;28;20038;-41
2023/01/01 07:25:41;;;;;;;15.27;2.00;;;;;;;14.80;59.86;101225.91;4987660;28;20041;-43
2023/01/01 07:28:06;;;;;;;17.60;2.17;;;;;;;14.87;59.66;101227.66;4983721;28;20042;-47
2023/01/01 07:30:31;;;;;;;18.30;2.20;;;;;;;14.44;60.43;101251.19;4987103;28;20041;-42
2023/01/01 07:32:57;;;;;;;15.13;2.20;;;;;;;14.99;58.67;101240.81;4987141;28;20038;-39
2023/01/01 07:35:22;;;;;;;18.80;2.38;;;;;;;14.97;58.97;101248.69;4983554;28;20053;-42
2023/01/01 07:37:47;;;;;;;14.60;2.03;;;;;;;14.33;60.36;101265.09;4987737;28;20069;-40
2023/01/01 07:40:13;;;;;;;13.73;2.10;;;;;;;14.75;59.43;101269.63;4983370;28;20058;-41
2023/01/01 07:42:38;;;;;;;12.02;2.08;;;;;;;14.54;59.43;101279.19;4986525;28;20035;-46
2023/01/01 07:45:04;;;;;;;14.82;1.90;;;;;;;14.55;59.62;101270.44;4986970;28;20078;-41
2023/01/01 07:47:29;;;;;;;17.42;2.22;;;;;;;14.84;58.50;101291.53;4982775;28;20038;-40
2023/01/01 07:49:54;;;;;;;15.60;2.15;;;;;;;14.83;58.55;101297.63;4986793;28;20034;-43
2023/01/01 07:52:20;;;;;;;14.07;1.90;;;;;;;14.69;58.80;101301.13;4982527;28;20653;-40
2023/01/01 07:54:45;;;;;;;12.35;1.70;;;;;;;14.71;58.98;101307.22;4987343;28;20125;-41
2023/01/01 07:57:10;;;;;;;16.20;1.90;;;;;;;14.65;58.84;101307.19;4983826;28;20129;-40
2023/01/01 07:59:36;;;;;;;13.32;1.83;;;;;;;14.86;58.06;101313.41;4987881;28;20125;-41
2023/01/01 08:02:01;;;;;;;13.70;1.75;;;;;;;14.40;59.26;101306.22;4988084;28;20061;-44
2023/01/01 08:04:27;;;;;;;11.35;2.00;;;;;;;14.48;59.27;101315.88;4985158;28;20042;-38
2023/01/01 08:06:52;;;;;;;12.70;2.13;;;;;;;14.48;59.01;101321.13;4987098;28;20058;-41
2023/01/01 08:09:18;;;;;;;15.27;1.90;;;;;;;14.52;58.63;101322.00;4983083;28;20041;-42
2023/01/01 08:11:44;;;;;;;14.45;1.60;;;;;;;14.78;58.22;101315.13;4986570;28;20034;-41
2023/01/01 08:14:09;;;;;;;12.80;1.85;;;;;;;14.59;58.76;101323.81;4982388;28;20042;-41
2023/01/01 08:16:34;;;;;;;15.00;1.90;;;;;;;14.65;58.65;101312.44;4986684;28;20034;-40
2023/01/01 08:19:00;;;;;;;16.50;2.00;;;;;;;14.87;58.28;101314.28;4986663;28;20214;-42
2023/01/01 08:21:25;;;;;;;13.43;2.05;;;;;;;14.52;58.73;101319.38;4982304;28;20471;-40
2023/01/01 08:23:50;;;;;;;14.48;1.90;;;;;;;15.30;56.80;101318.75;4986907;28;20038;-43
2023/01/01 08:26:25;;;;;;;14.23;2.08;;;;;;;15.39;56.10;101310.88;4984286;28;20035;-40
2023/01/01 08:28:50;;;;;;;;;;;;;;;14.84;57.94;101322.13;4988646;28;20041;-41
2023/01/01 08:31:15;;;;;;;9.03;1.60;;;;;;;14.94;57.61;101314.28;4987399;28;19985;-40
2023/01/01 08:33:40;;;;;;;12.07;1.75;;;;;;;14.88;57.76;101323.94;4991346;28;20279;-40
2023/01/01 08:36:08;;;;;;;13.88;1.77;;;;;;;14.76;58.08;101337.00;4988697;28;20038;-41
2023/01/01 08:38:33;;;;;;;12.20;1.90;;;;;;;14.82;57.94;101342.28;4990855;28;20030;-43
2023/01/01 08:40:59;;;;;;;12.93;1.95;;;;;;;14.94;57.66;101353.66;4987697;28;20582;-41
2023/01/01 08:43:24;;;;;;;9.75;1.55;;;;;;;14.73;58.16;101363.22;4984093;28;20089;-41
2023/01/01 08:45:49;;;;;;;13.77;2.22;;;;;;;14.43;58.87;101356.97;4987353;28;20030;-42
2023/01/01 08:48:15;;;;;;;15.43;1.77;;;;;;;14.60;59.02;101371.03;4984472;28;20458;-40
2023/01/01 08:50:40;;;;;;;12.20;1.90;;;;;;;14.50;58.50;101371.88;4989281;28;20098;-41
2023/01/01 08:53:05;;;;;;;19.48;2.03;;;;;;;14.76;58.27;101374.59;4988384;28;20034;-39
2023/01/01 08:55:31;;;;;;;17.30;2.13;;;;;;;14.91;57.61;101371.19;4987864;28;20030;-40
2023/01/01 08:57:56;;;;;;;18.85;2.25;;;;;;;15.07;57.25;101359.84;4987536;28;20507;-40
2023/01/01 09:00:21;;;;;;;15.70;1.90;;;;;;;14.96;57.63;101367.69;4982676;28;20514;-40
2023/01/01 09:02:47;;;;;;;11.73;1.88;;;;;;;15.32;56.85;101376.53;4985950;28;20122;-41
2023/01/01 09:05:12;;;;;;;13.57;1.75;;;;;;;15.30;56.35;101381.81;4982054;28;20066;-41
2023/01/01 09:07:37;;;;;;;12.23;1.70;;;;;;;14.97;57.80;101386.94;4985831;28;20041;-40
2023/01/01 09:10:03;;;;;;;14.60;1.95;;;;;;;15.06;57.35;101375.63;4986801;28;20038;-49
2023/01/01 09:12:29;;;;;;;14.93;2.15;;;;;;;15.38;56.40;101372.16;4996833;22;21100;-42
2023/01/01 09:14:54;;;;;;;15.07;1.90;;;;;;;15.74;55.59;101370.47;5003523;28;20132;-41
2023/01/01 09:17:19;;;;;;;13.05;2.10;;;;;;;15.56;56.19;101373.09;5000209;28;20491;-41
2023/01/01 09:19:45;;;;;;;13.57;1.73;;;;;;;15.43;56.08;101367.78;5003982;28;20038;-42
2023/01/01 09:22:11;;;;;;;15.18;1.98;;;;;;;15.47;55.98;101373.94;4999986;28;20037;-43
2023/01/01 09:24:36;;;;;;;12.10;2.00;;;;;;;15.49;56.16;101374.81;4984403;28;20045;-42
2023/01/01 09:27:02;;;;;;;14.43;2.05;;;;;;;15.47;56.48;101379.19;4984397;28;20034;-41
2023/01/01 09:29:27;;;;;;;13.57;1.90;;;;;;;15.31;56.36;101373.03;4980764;28;20030;-41
2023/01/01 09:31:52;;;;;;;18.35;1.90;;;;;;;15.48;56.34;101374.81;4984237;28;20447;-43
2023/01/01 09:34:17;;;;;;;16.17;1.95;;;;;;;15.18;57.20;101378.28;4979676;28;20065;-42
2023/01/01 09:36:44;;;;;;;11.02;1.92;;;;;;;15.36;57.45;101367.81;4984765;28;20121;-45
2023/01/01 09:39:14;;;;;;;9.20;1.67;;;;;;;15.42;57.12;101388.84;4980929;28;20038;-43
2023/01/01 09:41:58;;;;;;;9.52;1.90;;;;;;;15.54;56.55;101390.63;4983624;28;20033;-46
2023/01/01 09:44:44;;;;;;;13.73;2.20;;;;;;;15.56;56.47;101392.38;4982076;28;20034;-46
2023/01/01 09:47:29;;;;;;;13.00;2.35;;;;;;;15.55;56.74;101390.66;4983496;28;20133;-41
2023/01/01 09:49:59;;;;;;;10.90;2.05;;;;;;;15.40;57.24;101390.56;4986871;28;20041;-41
2023/01/01 09:52:52;;;;;;;11.38;1.90;;;;;;;15.62;56.68;101405.50;4984192;28;20510;-41
2023/01/01 09:55:26;;;;;;;11.88;2.20;;;;;;;15.34;57.43;101412.44;4981891;28;20052;-44
2023/01/01 09:57:54;;;;;;;14.98;2.00;;;;;;;15.48;57.16;101419.50;4985780;28;20026;-41
2023/01/01 10:00:20;;;;;;;9.70;1.63;;;;;;;15.48;57.16;101417.75;4979857;28;20053;-45
2023/01/01 10:03:02;;;;;;;10.43;2.05;;;;;;;15.82;56.08;101418.69;4983999;28;20038;-43
2023/01/01 10:05:52;;;;;;;12.63;2.10;;;;;;;15.99;55.91;101424.81;4979831;28;20034;-45
2023/01/01 10:08:39;;;;;;;12.25;2.00;;;;;;;15.60;57.24;101428.31;4980200;28;20030;-41
2023/01/01 10:11:21;;;;;;;11.95;2.08;;;;;;;15.59;57.72;101418.66;4983381;28;20581;-40
2023/01/01 10:13:50;;;;;;;12.90;2.00;;;;;;;15.47;58.02;101420.38;4980180;28;20034;-44
2023/01/01 10:16:19;;;;;;;11.35;1.80;;;;;;;15.88;57.58;101407.28;4979666;28;20034;-43
2023/01/01 10:18:47;;;;;;;9.35;1.50;;;;;;;15.85;57.44;101410.81;4983648;28;20542;-44
2023/01/01 10:21:18;;;;;;;12.25;1.92;;;;;;;15.77;57.61;101396.78;4979332;28;20034;-42
2023/01/01 10:23:48;;;;;;;11.88;2.17;;;;;;;15.17;59.29;101398.41;4982890;28;20740;-41
2023/01/01 10:26:20;;;;;;;11.48;2.13;;;;;;;15.60;58.56;101398.53;4979697;28;20133;-43
2023/01/01 10:29:07;;;;;;;10.82;1.80;;;;;;;15.72;58.57;101395.91;4984440;28;20031;-46
2023/01/01 10:31:40;;;;;;;11.35;1.85;;;;;;;15.46;59.46;101393.22;4985223;28;20042;-41
2023/01/01 10:34:18;;;;;;;15.20;1.88;;;;;;;15.52;59.40;101397.59;4990904;28;20653;-42
2023/01/01 10:36:43;;;;;;;13.43;1.80;;;;;;;15.39;60.06;101404.56;4981481;28;20499;-42
2023/01/01 10:39:17;;;;;;;12.38;1.88;;;;;;;15.53;59.60;101418.66;4980403;28;20058;-41
2023/01/01 10:41:43;;;;;;;9.23;2.10;;;;;;;15.75;59.67;101427.44;4983899;28;20117;-42
2023/01/01 10:44:15;;;;;;;14.95;2.30;;;;;;;16.00;59.06;101420.44;4981238;28;20050;-42
2023/01/01 10:46:45;;;;;;;13.07;2.08;;;;;;;15.86;59.40;101435.34;4988450;28;20034;-43
2023/01/01 10:49:13;;;;;;;12.98;2.20;;;;;;;15.93;58.97;101439.72;4983000;28;20038;-45
2023/01/01 10:51:45;;;;;;;16.15;2.15;;;;;;;15.88;59.15;101444.97;4984114;28;20514;-41
2023/01/01 10:54:36;;;;;;;14.25;2.95;;;;;;;15.65;60.07;101455.47;4980169;28;20053;-43
2023/01/01 10:57:17;;;;;;;11.50;1.88;;;;;;;16.00;59.23;101446.75;4984233;28;20557;-43
2023/01/01 10:59:44;;;;;;;11.43;1.92;;;;;;;15.48;60.67;101448.41;4980410;28;20137;-42
2023/01/01 11:02:27;;;;;;;15.45;2.20;;;;;;;16.06;59.10;101452.88;4978034;28;20434;-44
2023/01/01 11:05:12;;;;;;;14.98;2.30;;;;;;;15.67;60.25;101455.50;4982009;28;20032;-40
2023/01/01 11:07:40;;;;;;;11.55;1.83;;;;;;;15.58;60.80;101456.34;4980910;28;20173;-42
2023/01/01 11:10:14;;;;;;;9.48;1.77;;;;;;;15.66;60.37;101451.09;4982680;28;20510;-41
2023/01/01 11:12:40;;;;;;;12.90;2.37;;;;;;;15.60;60.54;101464.22;4982734;28;20038;-43
2023/01/01 11:15:06;;;;;;;11.15;2.05;;;;;;;15.42;61.55;101463.28;4982739;28;20065;-42
2023/01/01 11:17:33;;;;;;;11.48;2.17;;;;;;;15.58;61.08;101472.09;4978994;28;20030;-43
2023/01/01 11:20:01;;;;;;;15.40;2.28;;;;;;;15.52;61.38;101468.53;4982684;28;20495;-45
2023/01/01 11:22:41;;;;;;;14.20;2.58;;;;;;;15.44;62.06;101461.50;4979669;28;20583;-46
2023/01/01 11:25:26;;;;;;;11.60;2.30;;;;;;;15.52;61.64;101471.16;4980206;28;20508;-38
2023/01/01 11:28:12;;;;;;;14.30;2.33;;;;;;;15.65;61.59;101465.13;4983337;28;20208;-42
2023/01/01 11:30:38;;;;;;;11.50;2.45;;;;;;;15.51;61.56;101454.53;4978523;28;20061;-42
2023/01/01 11:33:04;;;;;;;15.13;2.63;;;;;;;15.68;61.35;101455.47;4982755;28;20066;-44